Canning, South Dakota
Current Conditions -  °F | °C
As of 9:53 AM on Wednesday 22 Oct 2014 (Local Time) from KPIR Reporting Station
Light Rain Light Rain  
Wind Chill: 55°   Ceiling: 10000
Heat Index: 55°   Visibility: 10mi
Dew Point: 48°   Wind: 21mph
Humidity: 77%   Direction: 310°NW
Pressure: 29.88"   Gusts: 32mph
Location:  44.3693°N, 100.04°W
Report Text: KPIR 221453Z AUTO 31018G28KT 10SM -RA FEW075 OVC100 13/09 A2988 RMK AO2 PK WND 32032/1427 RAB34 PRESRR SLP114 P0000 60000 T01280089 53030
Loading
Personal Weather Stations






























Interactive Weather Map
Tropical Storm Tracking
New forecast layout! Learn more

10-Day Weather Forecast

Advertisements
Track Severe Weather on mobile